Time;durP1;ratioP1;P1;durP2;ratioP2;P2;SDS_P1;SDS_P2;PMS_P1;PMS_P2;Temp;Humidity;BMP_temperature;BMP_pressure;BME280_temperature;BME280_humidity;BME280_pressure;Samples;Min_cycle;Max_cycle;Signal;HPM_P1;HPM_P2
2022/06/24 00:00:29;;;;;;;6.78;4.05;;;;;;;;;;5001733;28;20260;-68
2022/06/24 00:02:55;;;;;;;6.43;4.10;;;;;;;;;;4999208;28;20178;-68
2022/06/24 00:05:20;;;;;;;9.32;3.90;;;;;;;;;;4999434;28;20600;-68
2022/06/24 00:07:52;;;;;;;6.07;3.80;;;;;;;;;;4998425;28;20179;-67
2022/06/24 00:10:20;;;;;;;7.65;3.72;;;;;;;;;;5000143;28;20205;-67
2022/06/24 00:12:47;;;;;;;7.93;3.83;;;;;;;;;;4999602;28;20662;-67
2022/06/24 00:15:13;;;;;;;9.55;3.90;;;;;;;;;;4999097;28;20183;-67
2022/06/24 00:17:38;;;;;;;6.22;3.88;;;;;;;;;;4998018;28;20279;-67
2022/06/24 00:20:06;;;;;;;8.98;4.10;;;;;;;;;;5001010;28;20218;-67
2022/06/24 00:22:42;;;;;;;6.20;3.80;;;;;;;;;;4997276;28;20248;-67
2022/06/24 00:25:12;;;;;;;5.82;4.25;;;;;;;;;;4998559;28;20706;-67
2022/06/24 00:27:38;;;;;;;6.10;3.83;;;;;;;;;;4994767;28;20640;-67
2022/06/24 00:30:14;;;;;;;5.10;3.90;;;;;;;;;;4998331;28;20187;-68
2022/06/24 00:32:41;;;;;;;5.93;3.92;;;;;;;;;;4998891;28;20646;-68
2022/06/24 00:35:09;;;;;;;7.80;3.55;;;;;;;;;;4998559;28;20622;-67
2022/06/24 00:37:36;;;;;;;5.63;3.28;;;;;;;;;;5000539;28;20183;-67
2022/06/24 00:40:23;;;;;;;6.05;3.08;;;;;;;;;;4999359;28;20205;-67
2022/06/24 00:42:48;;;;;;;7.13;3.13;;;;;;;;;;4999991;28;20241;-67
2022/06/24 00:45:15;;;;;;;5.45;3.15;;;;;;;;;;5000143;28;20621;-67
2022/06/24 00:47:41;;;;;;;4.18;3.20;;;;;;;;;;4999421;28;20203;-68
2022/06/24 00:50:23;;;;;;;4.20;3.33;;;;;;;;;;4998424;28;20682;-67
2022/06/24 00:52:51;;;;;;;3.42;2.92;;;;;;;;;;4998920;28;20179;-67
2022/06/24 00:55:23;;;;;;;6.63;3.50;;;;;;;;;;4999837;28;20187;-67
2022/06/24 00:57:48;;;;;;;5.68;3.35;;;;;;;;;;4997179;28;20233;-68
2022/06/24 01:00:15;;;;;;;5.40;2.88;;;;;;;;;;5000326;28;20199;-68
2022/06/24 01:02:41;;;;;;;6.60;2.92;;;;;;;;;;4997827;28;20245;-67
2022/06/24 01:05:08;;;;;;;7.57;3.45;;;;;;;;;;5000668;28;20557;-68
2022/06/24 01:07:38;;;;;;;7.07;3.17;;;;;;;;;;4991977;28;20689;-68
2022/06/24 01:10:05;;;;;;;5.38;3.20;;;;;;;;;;4997788;28;20291;-67
2022/06/24 01:12:32;;;;;;;3.08;2.80;;;;;;;;;;4997447;28;20183;-68
2022/06/24 01:14:57;;;;;;;4.13;3.40;;;;;;;;;;4997976;28;20665;-67
2022/06/24 01:17:23;;;;;;;3.90;3.03;;;;;;;;;;4996990;28;20325;-67
2022/06/24 01:19:49;;;;;;;4.43;2.97;;;;;;;;;;4997972;28;20186;-68
2022/06/24 01:22:21;;;;;;;4.93;3.15;;;;;;;;;;4998230;28;20190;-68
2022/06/24 01:24:47;;;;;;;4.55;3.08;;;;;;;;;;4997945;28;20206;-67
2022/06/24 01:27:12;;;;;;;5.10;3.13;;;;;;;;;;4998183;28;20280;-67
2022/06/24 01:29:38;;;;;;;3.13;2.83;;;;;;;;;;4998892;28;20272;-67
2022/06/24 01:32:03;;;;;;;7.43;2.97;;;;;;;;;;4999008;28;20191;-67
2022/06/24 01:34:29;;;;;;;4.55;3.10;;;;;;;;;;5000841;28;20218;-67
2022/06/24 01:36:54;;;;;;;5.82;2.75;;;;;;;;;;4996791;28;20260;-68
2022/06/24 01:39:21;;;;;;;4.65;3.00;;;;;;;;;;4999656;28;20186;-68
2022/06/24 01:41:47;;;;;;;3.00;2.70;;;;;;;;;;4998083;28;20201;-67
2022/06/24 01:44:12;;;;;;;5.07;3.30;;;;;;;;;;4998874;28;20202;-68
2022/06/24 01:46:38;;;;;;;4.45;2.97;;;;;;;;;;4999497;28;20662;-68
2022/06/24 01:49:04;;;;;;;2.95;2.72;;;;;;;;;;4998725;28;20189;-68
2022/06/24 01:51:31;;;;;;;4.40;2.95;;;;;;;;;;4998236;28;20233;-67
2022/06/24 01:53:57;;;;;;;5.47;2.88;;;;;;;;;;4999197;28;20704;-68
2022/06/24 01:56:22;;;;;;;4.07;2.90;;;;;;;;;;5000021;28;20397;-67
2022/06/24 01:58:47;;;;;;;6.40;3.05;;;;;;;;;;4998068;28;20179;-67
2022/06/24 02:01:13;;;;;;;3.20;2.90;;;;;;;;;;4999262;28;20669;-67
2022/06/24 02:03:39;;;;;;;3.47;2.80;;;;;;;;;;4996643;28;20187;-67
2022/06/24 02:06:10;;;;;;;3.28;2.83;;;;;;;;;;5000271;28;20185;-67
2022/06/24 02:08:35;;;;;;;3.42;2.53;;;;;;;;;;5003533;28;20304;-67
2022/06/24 02:13:47;;;;;;;3.05;2.67;;;;;;;;;;5002920;28;20193;-65
2022/06/24 02:16:14;;;;;;;4.38;2.90;;;;;;;;;;5003755;28;20179;-67
2022/06/24 02:18:40;;;;;;;2.80;2.60;;;;;;;;;;5001866;28;20190;-66
2022/06/24 02:21:05;;;;;;;3.38;2.75;;;;;;;;;;5003109;28;20561;-66
2022/06/24 02:23:31;;;;;;;6.10;3.22;;;;;;;;;;5001683;28;20509;-66
2022/06/24 02:25:57;;;;;;;3.72;3.00;;;;;;;;;;4999568;28;20828;-65
2022/06/24 02:28:23;;;;;;;8.27;4.22;;;;;;;;;;5002633;28;20223;-69
2022/06/24 02:30:52;;;;;;;18.00;5.88;;;;;;;;;;5001646;28;20713;-70
2022/06/24 02:33:17;;;;;;;12.95;5.60;;;;;;;;;;5002209;28;20237;-70
2022/06/24 02:35:42;;;;;;;15.93;5.93;;;;;;;;;;5003423;28;20214;-70
2022/06/24 02:38:08;;;;;;;9.88;5.15;;;;;;;;;;5002923;28;20194;-70
2022/06/24 02:40:45;;;;;;;11.38;5.72;;;;;;;;;;5001130;28;20321;-70
2022/06/24 02:43:16;;;;;;;10.57;5.78;;;;;;;;;;5000885;28;20269;-71
2022/06/24 02:45:46;;;;;;;8.82;5.25;;;;;;;;;;5001426;28;20198;-70
2022/06/24 02:48:13;;;;;;;9.38;5.88;;;;;;;;;;5002789;28;20191;-70
2022/06/24 02:50:47;;;;;;;7.88;5.55;;;;;;;;;;5000118;28;20183;-69
2022/06/24 02:53:14;;;;;;;11.38;6.78;;;;;;;;;;5002855;28;20186;-68
2022/06/24 02:55:40;;;;;;;12.98;7.00;;;;;;;;;;5032375;28;20174;-69
2022/06/24 02:58:06;;;;;;;11.68;7.18;;;;;;;;;;5002164;28;21180;-69
2022/06/24 03:00:31;;;;;;;10.38;7.40;;;;;;;;;;5000874;28;20187;-69
2022/06/24 03:02:57;;;;;;;11.35;8.00;;;;;;;;;;5001875;28;20218;-69
2022/06/24 03:05:22;;;;;;;9.98;7.30;;;;;;;;;;5001029;28;20206;-69
2022/06/24 03:07:48;;;;;;;13.80;9.15;;;;;;;;;;5000444;28;20269;-67
2022/06/24 03:10:14;;;;;;;16.98;10.23;;;;;;;;;;5000902;28;20191;-69
2022/06/24 03:12:40;;;;;;;18.20;10.90;;;;;;;;;;5000799;28;20202;-70
2022/06/24 03:15:06;;;;;;;15.77;11.88;;;;;;;;;;5002724;28;20175;-71
2022/06/24 03:17:31;;;;;;;17.95;12.77;;;;;;;;;;4998845;28;20187;-70
2022/06/24 03:19:57;;;;;;;19.90;14.13;;;;;;;;;;5000213;28;20594;-70
2022/06/24 03:22:22;;;;;;;27.27;16.40;;;;;;;;;;5002472;28;20726;-70
2022/06/24 03:24:47;;;;;;;24.80;18.10;;;;;;;;;;4999968;28;20448;-69
2022/06/24 03:27:13;;;;;;;25.08;16.58;;;;;;;;;;4999180;28;20646;-70
2022/06/24 03:29:38;;;;;;;26.73;18.17;;;;;;;;;;5002077;28;20413;-70
2022/06/24 03:32:04;;;;;;;24.70;19.15;;;;;;;;;;5002091;28;20231;-70
2022/06/24 03:34:29;;;;;;;28.90;18.80;;;;;;;;;;5002243;28;20199;-71
2022/06/24 03:36:54;;;;;;;29.27;19.88;;;;;;;;;;5001216;28;20194;-70
2022/06/24 03:39:20;;;;;;;23.00;17.88;;;;;;;;;;5001747;28;20449;-69
2022/06/24 03:41:45;;;;;;;24.33;17.83;;;;;;;;;;4998629;28;20182;-69
2022/06/24 03:44:10;;;;;;;25.83;16.73;;;;;;;;;;5000541;28;20199;-70
2022/06/24 03:46:36;;;;;;;21.40;16.42;;;;;;;;;;5001151;28;20245;-69
2022/06/24 03:49:01;;;;;;;21.80;14.32;;;;;;;;;;5001618;28;20171;-70
2022/06/24 03:51:26;;;;;;;22.05;13.18;;;;;;;;;;5001370;28;20202;-70
2022/06/24 03:53:52;;;;;;;18.42;12.20;;;;;;;;;;5000133;28;20171;-69
2022/06/24 03:56:17;;;;;;;15.90;10.65;;;;;;;;;;5003118;28;20195;-68
2022/06/24 03:58:42;;;;;;;12.45;10.52;;;;;;;;;;5000561;28;20654;-71
2022/06/24 04:01:08;;;;;;;16.35;9.82;;;;;;;;;;5001406;28;20191;-68
2022/06/24 04:03:33;;;;;;;14.90;9.75;;;;;;;;;;5000554;28;20182;-70
2022/06/24 04:05:59;;;;;;;11.93;9.63;;;;;;;;;;5001360;28;20182;-70
2022/06/24 04:08:24;;;;;;;13.02;9.77;;;;;;;;;;5000541;28;20183;-68
2022/06/24 04:10:49;;;;;;;13.05;9.63;;;;;;;;;;5000932;28;20187;-70
2022/06/24 04:13:15;;;;;;;11.70;9.38;;;;;;;;;;5002568;28;20650;-70
2022/06/24 04:15:44;;;;;;;12.07;9.95;;;;;;;;;;4999907;28;20558;-70
2022/06/24 04:18:10;;;;;;;11.93;9.40;;;;;;;;;;4997951;28;20674;-70
2022/06/24 04:20:35;;;;;;;11.52;8.77;;;;;;;;;;4999983;28;20198;-69
2022/06/24 04:23:00;;;;;;;12.13;10.23;;;;;;;;;;5001133;28;20190;-68
2022/06/24 04:25:26;;;;;;;12.57;9.05;;;;;;;;;;5001896;28;20258;-70
2022/06/24 04:27:51;;;;;;;14.43;9.23;;;;;;;;;;4999351;28;20334;-67
2022/06/24 04:30:17;;;;;;;10.68;8.68;;;;;;;;;;4998421;28;20289;-70
2022/06/24 04:32:42;;;;;;;11.40;8.63;;;;;;;;;;5001148;28;20330;-69
2022/06/24 04:35:08;;;;;;;11.50;7.72;;;;;;;;;;4999395;28;20205;-67
2022/06/24 04:37:35;;;;;;;9.43;8.43;;;;;;;;;;4998589;28;20277;-69
2022/06/24 04:40:01;;;;;;;14.30;9.00;;;;;;;;;;4998616;28;20501;-66
2022/06/24 04:42:27;;;;;;;13.25;8.73;;;;;;;;;;4998788;28;20975;-69
2022/06/24 04:44:53;;;;;;;14.90;8.30;;;;;;;;;;4998810;28;20199;-69
2022/06/24 04:47:19;;;;;;;13.35;8.73;;;;;;;;;;4999093;28;20190;-68
2022/06/24 04:49:44;;;;;;;13.88;8.70;;;;;;;;;;4998206;28;20194;-68
2022/06/24 04:52:10;;;;;;;10.35;9.25;;;;;;;;;;4998475;28;20220;-69
2022/06/24 04:54:35;;;;;;;12.88;9.40;;;;;;;;;;4997880;28;20195;-70
2022/06/24 04:57:01;;;;;;;10.50;9.27;;;;;;;;;;4999035;28;20201;-69
2022/06/24 04:59:26;;;;;;;12.73;8.40;;;;;;;;;;4998278;28;20678;-68
2022/06/24 05:01:52;;;;;;;11.98;8.93;;;;;;;;;;5000900;28;20171;-69
2022/06/24 05:04:17;;;;;;;11.15;9.05;;;;;;;;;;4999163;28;20667;-69
2022/06/24 05:06:43;;;;;;;11.77;8.65;;;;;;;;;;4999578;28;20264;-69
2022/06/24 05:09:08;;;;;;;13.48;8.82;;;;;;;;;;4999898;28;20179;-68
2022/06/24 05:11:34;;;;;;;9.55;8.55;;;;;;;;;;4998027;28;20654;-69
2022/06/24 05:13:59;;;;;;;12.73;7.47;;;;;;;;;;5000675;28;20608;-69
2022/06/24 05:16:25;;;;;;;10.95;9.00;;;;;;;;;;4998885;28;20186;-69
2022/06/24 05:18:50;;;;;;;11.32;8.77;;;;;;;;;;4999535;28;20229;-69
2022/06/24 05:21:15;;;;;;;11.10;9.40;;;;;;;;;;5000643;28;20229;-69
2022/06/24 05:23:41;;;;;;;13.55;9.18;;;;;;;;;;4998578;28;20555;-66
2022/06/24 05:26:06;;;;;;;9.15;7.45;;;;;;;;;;4999324;28;20241;-69
2022/06/24 05:28:35;;;;;;;12.35;8.15;;;;;;;;;;4998144;28;20236;-69
2022/06/24 05:31:01;;;;;;;10.25;9.07;;;;;;;;;;4999393;28;20214;-69
2022/06/24 05:33:26;;;;;;;9.25;7.45;;;;;;;;;;4999062;28;20558;-68
2022/06/24 05:35:53;;;;;;;9.40;8.30;;;;;;;;;;4996953;28;20610;-70
2022/06/24 05:38:23;;;;;;;12.25;8.90;;;;;;;;;;4996243;28;20899;-69
2022/06/24 05:40:50;;;;;;;11.38;9.50;;;;;;;;;;4994670;28;20217;-69
2022/06/24 05:43:16;;;;;;;9.88;7.88;;;;;;;;;;4996471;28;20187;-68
2022/06/24 05:45:41;;;;;;;10.55;7.57;;;;;;;;;;4996153;28;20201;-69
2022/06/24 05:48:07;;;;;;;10.07;8.70;;;;;;;;;;4997112;28;20571;-69
2022/06/24 05:50:35;;;;;;;9.98;8.25;;;;;;;;;;4995617;28;20174;-69
2022/06/24 05:55:44;;;;;;;12.98;8.52;;;;;;;;;;4996099;28;20209;-70
2022/06/24 05:58:09;;;;;;;11.55;8.02;;;;;;;;;;4996277;28;20182;-69
2022/06/24 06:00:35;;;;;;;10.77;8.13;;;;;;;;;;4995651;28;20199;-68
2022/06/24 06:03:00;;;;;;;8.77;7.88;;;;;;;;;;4995077;28;20546;-68
2022/06/24 06:05:27;;;;;;;9.13;7.53;;;;;;;;;;4995999;28;20257;-69
2022/06/24 06:07:52;;;;;;;11.35;7.97;;;;;;;;;;4995916;28;20268;-68
2022/06/24 06:10:17;;;;;;;11.80;7.68;;;;;;;;;;4998909;28;20372;-68
2022/06/24 06:12:43;;;;;;;8.40;7.15;;;;;;;;;;4998852;28;20214;-68
2022/06/24 06:15:09;;;;;;;8.48;7.68;;;;;;;;;;4998066;28;20326;-67
2022/06/24 06:17:34;;;;;;;9.60;7.35;;;;;;;;;;4996638;28;20588;-67
2022/06/24 06:19:59;;;;;;;9.02;7.25;;;;;;;;;;4999275;28;20194;-68
2022/06/24 06:22:25;;;;;;;9.23;6.65;;;;;;;;;;4996774;28;20203;-69
2022/06/24 06:24:51;;;;;;;8.95;6.95;;;;;;;;;;4997538;28;20384;-69
2022/06/24 06:27:17;;;;;;;10.55;6.15;;;;;;;;;;4996961;28;20673;-69
2022/06/24 06:29:42;;;;;;;8.18;6.75;;;;;;;;;;4997466;28;20495;-67
2022/06/24 06:32:08;;;;;;;11.05;6.68;;;;;;;;;;4996641;28;20627;-69
2022/06/24 06:34:33;;;;;;;10.52;6.45;;;;;;;;;;4996057;28;20631;-68
2022/06/24 06:36:58;;;;;;;9.82;5.90;;;;;;;;;;4996289;28;20274;-68
2022/06/24 06:39:25;;;;;;;10.15;6.13;;;;;;;;;;4994359;28;20774;-69
2022/06/24 06:41:50;;;;;;;7.72;5.72;;;;;;;;;;4993606;28;20186;-67
2022/06/24 06:44:16;;;;;;;11.63;6.68;;;;;;;;;;4994532;28;20294;-67
2022/06/24 06:46:42;;;;;;;6.80;6.10;;;;;;;;;;4993693;28;20818;-67
2022/06/24 06:49:08;;;;;;;9.63;6.40;;;;;;;;;;4993413;28;20717;-65
2022/06/24 06:51:33;;;;;;;8.82;6.60;;;;;;;;;;4998052;28;20367;-68
2022/06/24 06:53:59;;;;;;;9.90;7.10;;;;;;;;;;4999075;28;20207;-68
2022/06/24 06:56:24;;;;;;;8.95;6.53;;;;;;;;;;5003580;28;20201;-68
2022/06/24 06:58:50;;;;;;;10.15;7.18;;;;;;;;;;5017719;28;20897;-68
2022/06/24 07:01:15;;;;;;;7.47;6.60;;;;;;;;;;5000507;28;20186;-67
2022/06/24 07:03:40;;;;;;;10.07;7.72;;;;;;;;;;5002471;28;20542;-69
2022/06/24 07:06:06;;;;;;;10.55;7.03;;;;;;;;;;5002430;28;20198;-69
2022/06/24 07:08:31;;;;;;;8.25;6.90;;;;;;;;;;5001183;28;20221;-69
2022/06/24 07:10:57;;;;;;;8.85;6.85;;;;;;;;;;5000077;28;20217;-69
2022/06/24 07:13:23;;;;;;;10.40;7.40;;;;;;;;;;4999997;28;20183;-71
2022/06/24 07:15:48;;;;;;;12.65;6.65;;;;;;;;;;5000665;28;20186;-69
2022/06/24 07:18:14;;;;;;;8.00;6.10;;;;;;;;;;5000339;28;20252;-70
2022/06/24 07:20:39;;;;;;;7.65;5.93;;;;;;;;;;4998313;28;20842;-71
2022/06/24 07:23:05;;;;;;;8.40;6.43;;;;;;;;;;4999759;28;20322;-70
2022/06/24 07:25:31;;;;;;;8.07;6.10;;;;;;;;;;4998965;28;20704;-69
2022/06/24 07:27:57;;;;;;;8.85;6.28;;;;;;;;;;4997114;28;20305;-69
2022/06/24 07:30:22;;;;;;;6.40;5.00;;;;;;;;;;4999433;28;20282;-69
2022/06/24 07:32:48;;;;;;;10.25;6.40;;;;;;;;;;5000405;28;20637;-69
2022/06/24 07:35:14;;;;;;;8.20;6.93;;;;;;;;;;4999921;28;20175;-71
2022/06/24 07:37:39;;;;;;;6.95;5.90;;;;;;;;;;4997939;28;20262;-69
2022/06/24 07:40:05;;;;;;;7.80;6.35;;;;;;;;;;4999957;28;20187;-69
2022/06/24 07:42:30;;;;;;;8.85;6.40;;;;;;;;;;5016625;28;20182;-70
2022/06/24 07:44:56;;;;;;;8.20;6.75;;;;;;;;;;4999561;28;20211;-70
2022/06/24 07:47:21;;;;;;;8.50;6.25;;;;;;;;;;4995707;28;20224;-71
2022/06/24 07:49:46;;;;;;;9.25;6.95;;;;;;;;;;4999411;28;20179;-75
2022/06/24 07:52:12;;;;;;;13.27;6.80;;;;;;;;;;4999593;28;20214;-74
2022/06/24 07:54:37;;;;;;;10.40;7.32;;;;;;;;;;4999844;28;20175;-74
2022/06/24 07:57:03;;;;;;;11.00;7.63;;;;;;;;;;4997285;28;20197;-74
2022/06/24 07:59:36;;;;;;;11.57;8.45;;;;;;;;;;5003779;28;20183;-73
2022/06/24 08:02:04;;;;;;;10.73;7.40;;;;;;;;;;5000391;28;20244;-76
2022/06/24 08:04:30;;;;;;;10.77;7.60;;;;;;;;;;4999454;28;20238;-74
2022/06/24 08:06:56;;;;;;;13.93;7.97;;;;;;;;;;4998890;28;20685;-74
2022/06/24 08:09:25;;;;;;;27.50;9.18;;;;;;;;;;4998901;28;20883;-72
2022/06/24 08:11:51;;;;;;;13.55;8.35;;;;;;;;;;5004033;28;20676;-76
2022/06/24 08:14:16;;;;;;;12.63;7.40;;;;;;;;;;5006337;28;20261;-74
2022/06/24 08:16:43;;;;;;;15.52;7.88;;;;;;;;;;5000350;28;20183;-73
2022/06/24 08:19:09;;;;;;;13.68;7.32;;;;;;;;;;5003824;28;20201;-74
2022/06/24 08:21:35;;;;;;;13.23;8.35;;;;;;;;;;5000821;28;20187;-74
2022/06/24 08:24:00;;;;;;;11.73;8.38;;;;;;;;;;5001655;28;20575;-75
2022/06/24 08:26:26;;;;;;;11.13;7.63;;;;;;;;;;5001984;28;20221;-74
2022/06/24 08:28:51;;;;;;;10.80;6.85;;;;;;;;;;5014212;28;20485;-72
2022/06/24 08:31:17;;;;;;;11.25;7.15;;;;;;;;;;5000723;28;20717;-73
2022/06/24 08:33:42;;;;;;;10.70;6.78;;;;;;;;;;4999660;28;20600;-71
2022/06/24 08:36:08;;;;;;;8.80;7.10;;;;;;;;;;5002015;28;20194;-74
2022/06/24 08:38:34;;;;;;;10.25;6.90;;;;;;;;;;5000591;28;20221;-75
2022/06/24 08:41:02;;;;;;;11.25;7.72;;;;;;;;;;4985308;28;20198;-75
2022/06/24 08:43:34;;;;;;;13.05;7.05;;;;;;;;;;5016525;28;20277;-74
2022/06/24 08:46:01;;;;;;;9.77;6.93;;;;;;;;;;5002207;28;20241;-77
2022/06/24 08:48:28;;;;;;;7.68;6.55;;;;;;;;;;5001469;28;20253;-74
2022/06/24 08:50:54;;;;;;;7.85;6.03;;;;;;;;;;5003776;28;20202;-75
2022/06/24 08:53:22;;;;;;;9.57;5.30;;;;;;;;;;5002940;28;20190;-70
2022/06/24 08:55:50;;;;;;;6.15;5.30;;;;;;;;;;5002869;28;20178;-74
2022/06/24 08:58:17;;;;;;;8.75;5.90;;;;;;;;;;5001462;28;20198;-73
2022/06/24 09:00:43;;;;;;;6.53;5.35;;;;;;;;;;4999115;28;20250;-72
2022/06/24 09:03:09;;;;;;;5.90;4.95;;;;;;;;;;4995063;28;21062;-72
2022/06/24 09:05:35;;;;;;;9.05;5.90;;;;;;;;;;4995491;28;20211;-72
2022/06/24 09:08:10;;;;;;;6.80;5.05;;;;;;;;;;4997421;28;20218;-74
2022/06/24 09:10:37;;;;;;;7.63;5.28;;;;;;;;;;4996332;28;20198;-72
2022/06/24 09:13:03;;;;;;;8.98;5.18;;;;;;;;;;4998401;28;20266;-72
2022/06/24 09:15:29;;;;;;;7.20;5.60;;;;;;;;;;4997016;28;20950;-70
2022/06/24 09:17:55;;;;;;;10.75;5.90;;;;;;;;;;4995056;28;20191;-71
2022/06/24 09:20:22;;;;;;;8.52;5.85;;;;;;;;;;4995018;28;20212;-74
2022/06/24 09:22:48;;;;;;;8.93;5.93;;;;;;;;;;4995381;28;20315;-71
2022/06/24 09:25:14;;;;;;;7.60;6.18;;;;;;;;;;4996885;28;20282;-73
2022/06/24 09:27:44;;;;;;;9.32;5.80;;;;;;;;;;4995530;28;20230;-72
2022/06/24 09:30:17;;;;;;;7.60;5.28;;;;;;;;;;4995065;28;20190;-70
2022/06/24 09:32:53;;;;;;;9.07;5.38;;;;;;;;;;4997075;28;20207;-70
2022/06/24 09:35:20;;;;;;;6.57;4.95;;;;;;;;;;4998226;28;20261;-71
2022/06/24 09:37:47;;;;;;;5.40;4.78;;;;;;;;;;4997518;28;20197;-71
2022/06/24 09:40:24;;;;;;;6.38;4.60;;;;;;;;;;4995765;28;21651;-71
2022/06/24 09:42:53;;;;;;;7.28;4.72;;;;;;;;;;4999352;28;20198;-73
2022/06/24 09:45:19;;;;;;;7.72;4.85;;;;;;;;;;4998725;28;20207;-73
2022/06/24 09:47:49;;;;;;;6.90;5.55;;;;;;;;;;4999195;28;20189;-73
2022/06/24 09:50:20;;;;;;;7.50;5.28;;;;;;;;;;4998437;28;20225;-73
2022/06/24 09:52:46;;;;;;;8.35;6.18;;;;;;;;;;4997798;28;20281;-72
2022/06/24 09:55:12;;;;;;;7.93;6.35;;;;;;;;;;4998906;28;20321;-71
2022/06/24 09:57:39;;;;;;;10.52;6.82;;;;;;;;;;5001060;28;20182;-71
2022/06/24 10:02:53;;;;;;;8.25;6.53;;;;;;;;;;4996732;28;20253;-70
2022/06/24 10:05:19;;;;;;;9.10;6.35;;;;;;;;;;4997316;28;20214;-70
2022/06/24 10:07:46;;;;;;;7.93;6.38;;;;;;;;;;4997977;28;20189;-68
2022/06/24 10:10:14;;;;;;;7.32;6.53;;;;;;;;;;5014806;28;20674;-70
2022/06/24 10:12:46;;;;;;;9.38;6.25;;;;;;;;;;5000761;28;20616;-70
2022/06/24 10:15:14;;;;;;;6.75;6.05;;;;;;;;;;4997786;28;20600;-69
2022/06/24 10:17:42;;;;;;;6.70;6.10;;;;;;;;;;4993700;28;21742;-70
2022/06/24 10:20:10;;;;;;;6.97;5.90;;;;;;;;;;5000615;28;20209;-70
2022/06/24 10:22:36;;;;;;;6.07;5.47;;;;;;;;;;4998931;28;20276;-70
2022/06/24 10:25:02;;;;;;;6.72;5.28;;;;;;;;;;4997397;28;20693;-68
2022/06/24 10:27:58;;;;;;;7.50;5.82;;;;;;;;;;5000719;28;20230;-72
2022/06/24 10:30:39;;;;;;;7.53;5.60;;;;;;;;;;5001616;28;20556;-70
2022/06/24 10:33:11;;;;;;;6.13;5.15;;;;;;;;;;4993522;28;20183;-71
2022/06/24 10:35:59;;;;;;;5.38;4.55;;;;;;;;;;4998534;28;20183;-70
2022/06/24 10:38:46;;;;;;;6.43;5.53;;;;;;;;;;5016719;28;20198;-70
2022/06/24 10:41:12;;;;;;;7.93;4.88;;;;;;;;;;5001372;28;20645;-68
2022/06/24 10:43:42;;;;;;;6.00;5.40;;;;;;;;;;5004245;28;20187;-67
2022/06/24 10:46:13;;;;;;;6.22;5.47;;;;;;;;;;5001117;28;20301;-69
2022/06/24 10:48:59;;;;;;;5.30;4.80;;;;;;;;;;5002345;28;20203;-69
2022/06/24 10:51:28;;;;;;;7.18;5.15;;;;;;;;;;5001209;28;20260;-70
2022/06/24 10:54:02;;;;;;;6.72;5.47;;;;;;;;;;5001636;28;20237;-69
2022/06/24 10:56:50;;;;;;;6.53;5.47;;;;;;;;;;5000563;28;20551;-69
2022/06/24 10:59:19;;;;;;;6.35;5.65;;;;;;;;;;5000365;28;20213;-69
2022/06/24 11:01:46;;;;;;;6.25;5.22;;;;;;;;;;5001827;28;20183;-70
2022/06/24 11:04:36;;;;;;;6.32;5.72;;;;;;;;;;4998753;28;20305;-68
2022/06/24 11:07:18;;;;;;;6.65;5.85;;;;;;;;;;4999290;28;20576;-68
2022/06/24 11:09:43;;;;;;;8.88;5.65;;;;;;;;;;5001789;28;20655;-71
2022/06/24 11:12:29;;;;;;;8.68;5.95;;;;;;;;;;5001509;28;20197;-69
2022/06/24 11:14:54;;;;;;;6.22;5.63;;;;;;;;;;4999719;28;20258;-69
2022/06/24 11:17:24;;;;;;;5.68;5.07;;;;;;;;;;4999722;28;20305;-70
2022/06/24 11:19:50;;;;;;;6.40;5.22;;;;;;;;;;4999657;28;20183;-71
2022/06/24 11:22:15;;;;;;;6.78;5.63;;;;;;;;;;5015392;28;20194;-71
2022/06/24 11:24:43;;;;;;;5.90;4.43;;;;;;;;;;5002242;28;20207;-70
2022/06/24 11:27:09;;;;;;;8.27;4.88;;;;;;;;;;5001993;28;20234;-69
2022/06/24 11:29:51;;;;;;;5.75;4.95;;;;;;;;;;5001347;28;20548;-68
2022/06/24 11:32:17;;;;;;;8.07;5.57;;;;;;;;;;5002696;28;20198;-69
2022/06/24 11:34:46;;;;;;;6.30;5.30;;;;;;;;;;5021959;28;20179;-69
2022/06/24 11:37:12;;;;;;;6.97;5.05;;;;;;;;;;5019640;28;20186;-66
2022/06/24 11:39:38;;;;;;;9.30;5.38;;;;;;;;;;5001713;28;20190;-64
2022/06/24 11:42:04;;;;;;;5.72;5.15;;;;;;;;;;5001023;28;20700;-67
2022/06/24 11:44:34;;;;;;;9.48;5.60;;;;;;;;;;4998365;28;20222;-68
2022/06/24 11:46:59;;;;;;;5.95;5.40;;;;;;;;;;4999700;28;20187;-68
2022/06/24 11:49:26;;;;;;;9.50;6.53;;;;;;;;;;5000552;28;20254;-68
2022/06/24 11:51:51;;;;;;;8.18;6.05;;;;;;;;;;4996658;28;20703;-66
2022/06/24 11:54:16;;;;;;;6.72;5.80;;;;;;;;;;4998889;28;20175;-68
2022/06/24 11:56:43;;;;;;;6.18;5.20;;;;;;;;;;4997339;28;20284;-64
2022/06/24 11:59:09;;;;;;;5.63;4.93;;;;;;;;;;4995486;28;20588;-68
2022/06/24 12:01:38;;;;;;;9.07;5.63;;;;;;;;;;4997356;28;20638;-67
2022/06/24 12:04:08;;;;;;;7.55;5.88;;;;;;;;;;4995921;28;20190;-68
2022/06/24 12:06:36;;;;;;;6.00;5.40;;;;;;;;;;4999241;28;20199;-67
2022/06/24 12:09:01;;;;;;;9.05;6.78;;;;;;;;;;4997710;28;20790;-67
2022/06/24 12:11:27;;;;;;;7.30;6.60;;;;;;;;;;4997002;28;20241;-67
2022/06/24 12:13:57;;;;;;;7.70;6.90;;;;;;;;;;4996106;28;21280;-68
2022/06/24 12:16:24;;;;;;;9.40;6.57;;;;;;;;;;4996021;28;20665;-68
2022/06/24 12:18:49;;;;;;;6.78;5.82;;;;;;;;;;5013718;28;20179;-67
2022/06/24 12:21:24;;;;;;;7.18;5.72;;;;;;;;;;4996640;28;20685;-68
2022/06/24 12:23:49;;;;;;;7.40;6.60;;;;;;;;;;4997875;28;20308;-69
2022/06/24 12:26:17;;;;;;;8.43;7.40;;;;;;;;;;4996255;28;20610;-68
2022/06/24 12:28:44;;;;;;;10.60;7.25;;;;;;;;;;4998901;28;20235;-68
2022/06/24 12:31:11;;;;;;;7.95;7.20;;;;;;;;;;4999729;28;20237;-66
2022/06/24 12:33:53;;;;;;;9.95;7.97;;;;;;;;;;4999970;28;20820;-67
2022/06/24 12:36:21;;;;;;;8.40;7.15;;;;;;;;;;5001319;28;20195;-66
2022/06/24 12:38:58;;;;;;;7.47;6.80;;;;;;;;;;4994967;28;20274;-67
2022/06/24 12:41:24;;;;;;;11.65;8.00;;;;;;;;;;5013859;28;20764;-68
2022/06/24 12:43:52;;;;;;;8.80;7.90;;;;;;;;;;5012329;28;20171;-68
2022/06/24 12:46:19;;;;;;;10.38;8.77;;;;;;;;;;4999787;28;20581;-68
2022/06/24 12:51:28;;;;;;;10.45;9.35;;;;;;;;;;4998020;28;20222;-66
2022/06/24 12:53:54;;;;;;;12.70;11.00;;;;;;;;;;4997353;28;20182;-65
2022/06/24 12:56:21;;;;;;;15.52;11.65;;;;;;;;;;4997558;28;20199;-67
2022/06/24 12:58:50;;;;;;;12.45;11.20;;;;;;;;;;4995481;28;20241;-68
2022/06/24 13:01:15;;;;;;;16.30;10.80;;;;;;;;;;4994557;28;20209;-65
2022/06/24 13:03:41;;;;;;;16.20;11.48;;;;;;;;;;4996549;28;20195;-66
2022/06/24 13:06:06;;;;;;;12.32;11.10;;;;;;;;;;4995001;28;20888;-67
2022/06/24 13:08:31;;;;;;;13.52;11.82;;;;;;;;;;4997098;28;20189;-67
2022/06/24 13:10:57;;;;;;;15.02;12.10;;;;;;;;;;4997447;28;20261;-65
2022/06/24 13:13:23;;;;;;;16.10;12.63;;;;;;;;;;4996487;28;20194;-66
2022/06/24 13:15:53;;;;;;;13.77;11.55;;;;;;;;;;4995939;28;20647;-66
2022/06/24 13:18:18;;;;;;;15.40;13.32;;;;;;;;;;5009697;28;20198;-66
2022/06/24 13:20:44;;;;;;;15.00;13.27;;;;;;;;;;4994039;28;20194;-67
2022/06/24 13:23:09;;;;;;;16.45;12.77;;;;;;;;;;4996759;28;20178;-66
2022/06/24 13:25:34;;;;;;;13.35;12.00;;;;;;;;;;4996131;28;20229;-68
2022/06/24 13:28:00;;;;;;;14.13;12.10;;;;;;;;;;4995872;28;21540;-66
2022/06/24 13:30:25;;;;;;;15.18;12.45;;;;;;;;;;4995199;28;20191;-67
2022/06/24 13:32:51;;;;;;;15.48;12.90;;;;;;;;;;4996197;28;20221;-67
2022/06/24 13:35:16;;;;;;;14.25;12.40;;;;;;;;;;4995357;28;20178;-66
2022/06/24 13:37:41;;;;;;;12.52;10.93;;;;;;;;;;4996116;28;20218;-66
2022/06/24 13:40:08;;;;;;;12.50;11.20;;;;;;;;;;4994674;28;20183;-64
2022/06/24 13:42:34;;;;;;;15.10;12.40;;;;;;;;;;4995947;28;20890;-66
2022/06/24 13:45:00;;;;;;;15.25;12.48;;;;;;;;;;4993403;28;20202;-66
2022/06/24 13:47:26;;;;;;;11.63;10.43;;;;;;;;;;4995976;28;20646;-65
2022/06/24 13:49:51;;;;;;;14.32;12.82;;;;;;;;;;4996851;28;20949;-66
2022/06/24 13:52:16;;;;;;;16.27;12.43;;;;;;;;;;4996399;28;20605;-67
2022/06/24 13:54:42;;;;;;;12.85;11.38;;;;;;;;;;4993806;28;20189;-65
2022/06/24 13:57:08;;;;;;;13.10;11.30;;;;;;;;;;4996732;28;20187;-66
2022/06/24 13:59:34;;;;;;;12.73;11.32;;;;;;;;;;4997674;28;20248;-67
2022/06/24 14:02:00;;;;;;;13.90;11.25;;;;;;;;;;4992507;28;20183;-67
2022/06/24 14:04:25;;;;;;;13.20;11.82;;;;;;;;;;4995188;28;20272;-67
2022/06/24 14:06:50;;;;;;;12.65;11.32;;;;;;;;;;4992640;28;20263;-64
2022/06/24 14:09:16;;;;;;;14.15;12.35;;;;;;;;;;4993061;28;20189;-65
2022/06/24 14:11:41;;;;;;;14.52;12.73;;;;;;;;;;4995456;28;20205;-66
2022/06/24 14:14:07;;;;;;;12.00;10.70;;;;;;;;;;4994515;28;20198;-64
2022/06/24 14:16:32;;;;;;;13.25;11.82;;;;;;;;;;4996050;28;20201;-64
2022/06/24 14:18:59;;;;;;;13.77;12.38;;;;;;;;;;4992378;28;20344;-65
2022/06/24 14:21:25;;;;;;;13.65;11.38;;;;;;;;;;4994819;28;20187;-67
2022/06/24 14:26:34;;;;;;;15.98;12.23;;;;;;;;;;4995654;28;20621;-65
2022/06/24 14:29:00;;;;;;;15.38;12.57;;;;;;;;;;4996802;28;20257;-65
2022/06/24 14:31:25;;;;;;;12.35;11.13;;;;;;;;;;4996549;28;20261;-65
2022/06/24 14:33:50;;;;;;;13.93;12.18;;;;;;;;;;4993963;28;20187;-65
2022/06/24 14:36:16;;;;;;;11.93;10.70;;;;;;;;;;4996403;28;20186;-64
2022/06/24 14:41:26;;;;;;;10.50;9.38;;;;;;;;;;4995503;28;20621;-65
2022/06/24 14:43:51;;;;;;;12.35;11.15;;;;;;;;;;4994261;28;20179;-66
2022/06/24 14:46:16;;;;;;;11.10;9.95;;;;;;;;;;4996168;28;20219;-65
2022/06/24 14:48:42;;;;;;;10.15;8.88;;;;;;;;;;4992969;28;20218;-64
2022/06/24 14:51:07;;;;;;;8.55;7.65;;;;;;;;;;4996695;28;20723;-65